CheckWX is a tool to help pilots better visualize weather data.  It is not intended as a substitute for an official pre-flight weather briefing.

21:32:09 UTC

FALA METAR
Lanseria Airport
Johannesburg, South Africa
Current

32 mins ago

FALA 022100Z AUTO 17006KT //// // ////// 11/01 Q1029
Observed
Jul-2 @ 21:00 UTC
Wind
  • 170° at 6 KTS
Visibility
Cloud Levels
Temperature
11°C / 52°F
Dewpoint
C / 34°F
Humidity
50%
Altimeter
30.38" Hg
Pressure
1028.92 hPa
Previous

2 hours ago

FALA 022000Z AUTO 18005KT //// // ////// 11/01 Q1029
Observed
Jul-2 @ 20:00 UTC
Wind
  • 180° at 5 KTS
Visibility
Cloud Levels
Temperature
11°C / 52°F
Dewpoint
C / 34°F
Humidity
50%
Altimeter
30.38" Hg
Pressure
1028.92 hPa
Previous

3 hours ago

FALA 021900Z AUTO 19007KT //// // ////// 11/00 Q1028
Observed
Jul-2 @ 19:00 UTC
Wind
  • 190° at 7 KTS
Visibility
Cloud Levels
Temperature
11°C / 52°F
Dewpoint
C / 32°F
Humidity
47%
Altimeter
30.35" Hg
Pressure
1027.92 hPa